sensor_id;sensor_type;location;lat;lon;timestamp;P1;durP1;ratioP1;P2;durP2;ratioP2
45762;SDS011;37512;52.408;13.356;2023-04-25T00:01:28;3.25;;;1.88;;
45762;SDS011;37512;52.408;13.356;2023-04-25T00:05:30;1.92;;;1.08;;
45762;SDS011;37512;52.408;13.356;2023-04-25T00:09:32;5.22;;;1.75;;
45762;SDS011;37512;52.408;13.356;2023-04-25T00:13:34;5.35;;;1.58;;
45762;SDS011;37512;52.408;13.356;2023-04-25T00:17:35;2.83;;;1.48;;
45762;SDS011;37512;52.408;13.356;2023-04-25T00:21:39;4.57;;;1.95;;
45762;SDS011;37512;52.408;13.356;2023-04-25T00:25:44;6.43;;;1.85;;
45762;SDS011;37512;52.408;13.356;2023-04-25T00:29:47;7.57;;;2.15;;
45762;SDS011;37512;52.408;13.356;2023-04-25T00:33:48;4.20;;;1.90;;
45762;SDS011;37512;52.408;13.356;2023-04-25T00:37:50;3.20;;;1.90;;
45762;SDS011;37512;52.408;13.356;2023-04-25T00:41:51;4.50;;;2.05;;
45762;SDS011;37512;52.408;13.356;2023-04-25T00:45:55;5.25;;;2.00;;
45762;SDS011;37512;52.408;13.356;2023-04-25T00:49:58;3.53;;;1.85;;
45762;SDS011;37512;52.408;13.356;2023-04-25T00:54:00;3.08;;;2.20;;
45762;SDS011;37512;52.408;13.356;2023-04-25T00:58:02;3.10;;;1.65;;
45762;SDS011;37512;52.408;13.356;2023-04-25T01:02:04;3.50;;;2.10;;
45762;SDS011;37512;52.408;13.356;2023-04-25T01:06:09;3.65;;;2.10;;
45762;SDS011;37512;52.408;13.356;2023-04-25T01:10:11;6.90;;;2.60;;
45762;SDS011;37512;52.408;13.356;2023-04-25T01:14:13;2.13;;;1.05;;
45762;SDS011;37512;52.408;13.356;2023-04-25T01:18:14;4.38;;;2.30;;
45762;SDS011;37512;52.408;13.356;2023-04-25T01:22:17;4.20;;;2.17;;
45762;SDS011;37512;52.408;13.356;2023-04-25T01:26:18;5.45;;;2.58;;
45762;SDS011;37512;52.408;13.356;2023-04-25T01:30:22;1.73;;;1.33;;
45762;SDS011;37512;52.408;13.356;2023-04-25T01:34:23;2.72;;;1.85;;
45762;SDS011;37512;52.408;13.356;2023-04-25T01:38:26;7.15;;;2.10;;
45762;SDS011;37512;52.408;13.356;2023-04-25T01:42:28;1.77;;;1.50;;
45762;SDS011;37512;52.408;13.356;2023-04-25T01:46:29;3.40;;;2.45;;
45762;SDS011;37512;52.408;13.356;2023-04-25T01:50:31;3.50;;;2.28;;
45762;SDS011;37512;52.408;13.356;2023-04-25T01:54:33;7.03;;;2.30;;
45762;SDS011;37512;52.408;13.356;2023-04-25T01:58:34;4.75;;;2.30;;
45762;SDS011;37512;52.408;13.356;2023-04-25T02:02:36;3.95;;;2.05;;
45762;SDS011;37512;52.408;13.356;2023-04-25T02:06:38;7.88;;;2.40;;
45762;SDS011;37512;52.408;13.356;2023-04-25T02:10:39;3.83;;;2.55;;
45762;SDS011;37512;52.408;13.356;2023-04-25T02:14:41;5.15;;;3.10;;
45762;SDS011;37512;52.408;13.356;2023-04-25T02:18:42;9.77;;;2.75;;
45762;SDS011;37512;52.408;13.356;2023-04-25T02:22:46;3.97;;;2.15;;
45762;SDS011;37512;52.408;13.356;2023-04-25T02:26:47;2.40;;;1.67;;
45762;SDS011;37512;52.408;13.356;2023-04-25T02:30:50;5.78;;;3.00;;
45762;SDS011;37512;52.408;13.356;2023-04-25T02:34:52;5.78;;;2.85;;
45762;SDS011;37512;52.408;13.356;2023-04-25T02:38:53;8.15;;;3.22;;
45762;SDS011;37512;52.408;13.356;2023-04-25T02:42:55;6.63;;;2.75;;
45762;SDS011;37512;52.408;13.356;2023-04-25T02:46:56;6.97;;;3.00;;
45762;SDS011;37512;52.408;13.356;2023-04-25T02:50:58;7.03;;;3.22;;
45762;SDS011;37512;52.408;13.356;2023-04-25T02:54:59;9.07;;;3.42;;
45762;SDS011;37512;52.408;13.356;2023-04-25T02:59:01;8.05;;;3.13;;
45762;SDS011;37512;52.408;13.356;2023-04-25T03:03:02;7.25;;;3.42;;
45762;SDS011;37512;52.408;13.356;2023-04-25T03:07:04;4.38;;;2.90;;
45762;SDS011;37512;52.408;13.356;2023-04-25T03:11:05;5.00;;;2.45;;
45762;SDS011;37512;52.408;13.356;2023-04-25T03:15:07;4.53;;;2.75;;
45762;SDS011;37512;52.408;13.356;2023-04-25T03:19:08;5.95;;;3.47;;
45762;SDS011;37512;52.408;13.356;2023-04-25T03:23:10;7.78;;;3.05;;
45762;SDS011;37512;52.408;13.356;2023-04-25T03:27:11;5.50;;;3.22;;
45762;SDS011;37512;52.408;13.356;2023-04-25T03:31:13;8.27;;;3.55;;
45762;SDS011;37512;52.408;13.356;2023-04-25T03:35:14;3.83;;;2.90;;
45762;SDS011;37512;52.408;13.356;2023-04-25T03:39:16;8.10;;;3.40;;
45762;SDS011;37512;52.408;13.356;2023-04-25T03:43:17;6.15;;;3.78;;
45762;SDS011;37512;52.408;13.356;2023-04-25T03:47:19;5.78;;;3.22;;
45762;SDS011;37512;52.408;13.356;2023-04-25T03:51:20;9.88;;;3.58;;
45762;SDS011;37512;52.408;13.356;2023-04-25T03:55:22;10.65;;;3.72;;
45762;SDS011;37512;52.408;13.356;2023-04-25T03:59:23;4.18;;;2.67;;
45762;SDS011;37512;52.408;13.356;2023-04-25T04:03:26;4.72;;;2.13;;
45762;SDS011;37512;52.408;13.356;2023-04-25T04:07:27;4.18;;;3.10;;
45762;SDS011;37512;52.408;13.356;2023-04-25T04:11:29;10.07;;;4.07;;
45762;SDS011;37512;52.408;13.356;2023-04-25T04:15:30;7.10;;;4.68;;
45762;SDS011;37512;52.408;13.356;2023-04-25T04:19:34;8.55;;;3.78;;
45762;SDS011;37512;52.408;13.356;2023-04-25T04:23:35;9.40;;;3.75;;
45762;SDS011;37512;52.408;13.356;2023-04-25T04:27:47;10.05;;;3.58;;
45762;SDS011;37512;52.408;13.356;2023-04-25T04:31:49;11.25;;;3.58;;
45762;SDS011;37512;52.408;13.356;2023-04-25T04:35:52;5.00;;;3.47;;
45762;SDS011;37512;52.408;13.356;2023-04-25T04:39:54;7.65;;;3.15;;
45762;SDS011;37512;52.408;13.356;2023-04-25T04:43:56;10.27;;;4.85;;
45762;SDS011;37512;52.408;13.356;2023-04-25T04:47:58;10.02;;;4.10;;
45762;SDS011;37512;52.408;13.356;2023-04-25T04:51:59;8.55;;;3.28;;
45762;SDS011;37512;52.408;13.356;2023-04-25T04:56:01;7.03;;;3.45;;
45762;SDS011;37512;52.408;13.356;2023-04-25T05:00:04;12.07;;;4.03;;
45762;SDS011;37512;52.408;13.356;2023-04-25T05:04:11;4.32;;;2.72;;
45762;SDS011;37512;52.408;13.356;2023-04-25T05:08:13;3.53;;;2.13;;
45762;SDS011;37512;52.408;13.356;2023-04-25T05:12:15;8.60;;;3.53;;
45762;SDS011;37512;52.408;13.356;2023-04-25T05:16:16;6.63;;;2.58;;
45762;SDS011;37512;52.408;13.356;2023-04-25T05:20:18;7.50;;;2.90;;
45762;SDS011;37512;52.408;13.356;2023-04-25T05:24:20;9.95;;;4.10;;
45762;SDS011;37512;52.408;13.356;2023-04-25T05:28:21;8.40;;;4.05;;
45762;SDS011;37512;52.408;13.356;2023-04-25T05:32:23;2.63;;;2.13;;
45762;SDS011;37512;52.408;13.356;2023-04-25T05:36:26;7.15;;;2.72;;
45762;SDS011;37512;52.408;13.356;2023-04-25T05:40:30;8.13;;;4.18;;
45762;SDS011;37512;52.408;13.356;2023-04-25T05:44:32;6.82;;;3.35;;
45762;SDS011;37512;52.408;13.356;2023-04-25T05:48:33;12.32;;;4.85;;
45762;SDS011;37512;52.408;13.356;2023-04-25T05:52:35;7.10;;;3.78;;
45762;SDS011;37512;52.408;13.356;2023-04-25T05:56:36;5.50;;;3.55;;
45762;SDS011;37512;52.408;13.356;2023-04-25T06:00:38;3.70;;;2.17;;
45762;SDS011;37512;52.408;13.356;2023-04-25T06:04:40;6.80;;;3.78;;
45762;SDS011;37512;52.408;13.356;2023-04-25T06:08:41;4.32;;;2.22;;
45762;SDS011;37512;52.408;13.356;2023-04-25T06:12:43;5.50;;;3.30;;
45762;SDS011;37512;52.408;13.356;2023-04-25T06:16:44;8.27;;;4.28;;
45762;SDS011;37512;52.408;13.356;2023-04-25T06:20:46;10.43;;;4.13;;
45762;SDS011;37512;52.408;13.356;2023-04-25T06:24:48;7.75;;;4.15;;
45762;SDS011;37512;52.408;13.356;2023-04-25T06:28:49;9.23;;;3.67;;
45762;SDS011;37512;52.408;13.356;2023-04-25T06:32:51;9.23;;;3.95;;
45762;SDS011;37512;52.408;13.356;2023-04-25T06:36:54;6.30;;;2.78;;
45762;SDS011;37512;52.408;13.356;2023-04-25T06:40:55;8.85;;;3.75;;
45762;SDS011;37512;52.408;13.356;2023-04-25T06:44:57;9.57;;;4.38;;
45762;SDS011;37512;52.408;13.356;2023-04-25T06:48:59;10.27;;;3.78;;
45762;SDS011;37512;52.408;13.356;2023-04-25T06:53:00;4.80;;;2.20;;
45762;SDS011;37512;52.408;13.356;2023-04-25T06:57:02;8.77;;;5.05;;
45762;SDS011;37512;52.408;13.356;2023-04-25T07:01:04;10.05;;;5.60;;
45762;SDS011;37512;52.408;13.356;2023-04-25T07:05:06;12.15;;;3.85;;
45762;SDS011;37512;52.408;13.356;2023-04-25T07:09:08;10.00;;;4.47;;
45762;SDS011;37512;52.408;13.356;2023-04-25T07:13:11;6.10;;;2.92;;
45762;SDS011;37512;52.408;13.356;2023-04-25T07:17:13;10.00;;;3.80;;
45762;SDS011;37512;52.408;13.356;2023-04-25T07:21:14;6.70;;;2.90;;
45762;SDS011;37512;52.408;13.356;2023-04-25T07:25:16;6.82;;;3.20;;
45762;SDS011;37512;52.408;13.356;2023-04-25T07:29:18;9.75;;;3.72;;
45762;SDS011;37512;52.408;13.356;2023-04-25T07:33:19;12.27;;;3.17;;
45762;SDS011;37512;52.408;13.356;2023-04-25T07:37:21;9.93;;;3.22;;
45762;SDS011;37512;52.408;13.356;2023-04-25T07:41:23;7.82;;;3.10;;
45762;SDS011;37512;52.408;13.356;2023-04-25T07:45:24;7.30;;;2.95;;
45762;SDS011;37512;52.408;13.356;2023-04-25T07:49:27;6.18;;;3.10;;
45762;SDS011;37512;52.408;13.356;2023-04-25T07:53:28;10.10;;;2.28;;
45762;SDS011;37512;52.408;13.356;2023-04-25T07:57:30;8.35;;;3.55;;
45762;SDS011;37512;52.408;13.356;2023-04-25T08:01:32;4.05;;;2.20;;
45762;SDS011;37512;52.408;13.356;2023-04-25T08:05:34;8.15;;;2.58;;
45762;SDS011;37512;52.408;13.356;2023-04-25T08:09:36;5.50;;;2.65;;
45762;SDS011;37512;52.408;13.356;2023-04-25T08:13:38;11.07;;;3.30;;
45762;SDS011;37512;52.408;13.356;2023-04-25T08:17:39;9.43;;;3.60;;
45762;SDS011;37512;52.408;13.356;2023-04-25T08:21:41;19.30;;;2.97;;
45762;SDS011;37512;52.408;13.356;2023-04-25T08:25:42;10.35;;;4.43;;
45762;SDS011;37512;52.408;13.356;2023-04-25T08:29:44;17.27;;;4.18;;
45762;SDS011;37512;52.408;13.356;2023-04-25T08:33:46;6.32;;;2.88;;
45762;SDS011;37512;52.408;13.356;2023-04-25T08:37:48;10.38;;;2.72;;
45762;SDS011;37512;52.408;13.356;2023-04-25T08:41:50;12.48;;;3.05;;
45762;SDS011;37512;52.408;13.356;2023-04-25T08:45:53;13.65;;;3.38;;
45762;SDS011;37512;52.408;13.356;2023-04-25T08:49:59;8.80;;;2.45;;
45762;SDS011;37512;52.408;13.356;2023-04-25T08:54:10;24.48;;;2.45;;
45762;SDS011;37512;52.408;13.356;2023-04-25T08:58:15;13.98;;;2.50;;
45762;SDS011;37512;52.408;13.356;2023-04-25T09:02:19;11.48;;;2.38;;
45762;SDS011;37512;52.408;13.356;2023-04-25T09:06:22;8.02;;;1.98;;
45762;SDS011;37512;52.408;13.356;2023-04-25T09:10:25;5.38;;;2.05;;
45762;SDS011;37512;52.408;13.356;2023-04-25T09:14:27;15.77;;;3.00;;
45762;SDS011;37512;52.408;13.356;2023-04-25T09:18:30;11.90;;;2.92;;
45762;SDS011;37512;52.408;13.356;2023-04-25T09:22:32;9.32;;;2.65;;
45762;SDS011;37512;52.408;13.356;2023-04-25T09:26:34;11.68;;;2.35;;
45762;SDS011;37512;52.408;13.356;2023-04-25T09:30:36;14.82;;;2.70;;
45762;SDS011;37512;52.408;13.356;2023-04-25T09:34:45;6.00;;;2.17;;
45762;SDS011;37512;52.408;13.356;2023-04-25T09:38:51;13.18;;;3.10;;
45762;SDS011;37512;52.408;13.356;2023-04-25T09:42:53;7.72;;;1.70;;
45762;SDS011;37512;52.408;13.356;2023-04-25T09:46:55;6.28;;;2.33;;
45762;SDS011;37512;52.408;13.356;2023-04-25T09:55:04;9.07;;;1.80;;
45762;SDS011;37512;52.408;13.356;2023-04-25T09:59:07;9.82;;;2.53;;
45762;SDS011;37512;52.408;13.356;2023-04-25T10:03:10;10.68;;;2.67;;
45762;SDS011;37512;52.408;13.356;2023-04-25T10:07:13;11.23;;;2.67;;
45762;SDS011;37512;52.408;13.356;2023-04-25T10:11:15;3.28;;;1.38;;
45762;SDS011;37512;52.408;13.356;2023-04-25T10:15:18;8.30;;;2.08;;
45762;SDS011;37512;52.408;13.356;2023-04-25T10:19:20;7.80;;;2.35;;
45762;SDS011;37512;52.408;13.356;2023-04-25T10:23:23;8.65;;;1.83;;
45762;SDS011;37512;52.408;13.356;2023-04-25T10:27:27;7.45;;;1.73;;
45762;SDS011;37512;52.408;13.356;2023-04-25T10:31:29;8.00;;;1.30;;
45762;SDS011;37512;52.408;13.356;2023-04-25T10:35:32;12.35;;;1.83;;
45762;SDS011;37512;52.408;13.356;2023-04-25T10:39:36;9.07;;;2.60;;
45762;SDS011;37512;52.408;13.356;2023-04-25T10:43:41;8.55;;;2.30;;
45762;SDS011;37512;52.408;13.356;2023-04-25T10:47:47;3.25;;;1.13;;
45762;SDS011;37512;52.408;13.356;2023-04-25T10:51:49;8.07;;;1.90;;
45762;SDS011;37512;52.408;13.356;2023-04-25T10:55:55;5.82;;;1.38;;
45762;SDS011;37512;52.408;13.356;2023-04-25T11:00:10;8.38;;;1.58;;
45762;SDS011;37512;52.408;13.356;2023-04-25T11:04:23;10.52;;;2.25;;
45762;SDS011;37512;52.408;13.356;2023-04-25T11:08:46;4.15;;;1.83;;
45762;SDS011;37512;52.408;13.356;2023-04-25T11:12:51;10.60;;;2.10;;
45762;SDS011;37512;52.408;13.356;2023-04-25T11:16:53;10.98;;;2.22;;
45762;SDS011;37512;52.408;13.356;2023-04-25T11:20:59;9.75;;;2.70;;
45762;SDS011;37512;52.408;13.356;2023-04-25T11:25:05;7.05;;;2.03;;
45762;SDS011;37512;52.408;13.356;2023-04-25T11:29:08;15.23;;;2.25;;
45762;SDS011;37512;52.408;13.356;2023-04-25T11:33:09;8.00;;;3.05;;
45762;SDS011;37512;52.408;13.356;2023-04-25T11:37:11;7.05;;;2.30;;
45762;SDS011;37512;52.408;13.356;2023-04-25T11:41:13;9.80;;;2.50;;
45762;SDS011;37512;52.408;13.356;2023-04-25T11:45:15;6.75;;;1.80;;
45762;SDS011;37512;52.408;13.356;2023-04-25T11:49:17;7.15;;;2.05;;
45762;SDS011;37512;52.408;13.356;2023-04-25T11:53:19;3.13;;;1.10;;
45762;SDS011;37512;52.408;13.356;2023-04-25T11:57:21;6.25;;;1.50;;
45762;SDS011;37512;52.408;13.356;2023-04-25T12:05:35;1.63;;;1.02;;
45762;SDS011;37512;52.408;13.356;2023-04-25T12:09:39;3.72;;;1.35;;
45762;SDS011;37512;52.408;13.356;2023-04-25T12:13:41;4.93;;;1.83;;
45762;SDS011;37512;52.408;13.356;2023-04-25T12:17:45;8.23;;;3.17;;
45762;SDS011;37512;52.408;13.356;2023-04-25T12:21:48;9.15;;;2.05;;
45762;SDS011;37512;52.408;13.356;2023-04-25T12:25:59;17.23;;;2.17;;
45762;SDS011;37512;52.408;13.356;2023-04-25T12:30:04;3.88;;;1.70;;
45762;SDS011;37512;52.408;13.356;2023-04-25T12:34:06;2.72;;;1.05;;
45762;SDS011;37512;52.408;13.356;2023-04-25T12:38:08;4.88;;;1.65;;
45762;SDS011;37512;52.408;13.356;2023-04-25T12:42:09;5.90;;;1.58;;
45762;SDS011;37512;52.408;13.356;2023-04-25T12:46:14;4.97;;;1.65;;
45762;SDS011;37512;52.408;13.356;2023-04-25T12:50:16;4.20;;;1.23;;
45762;SDS011;37512;52.408;13.356;2023-04-25T12:54:17;7.97;;;1.98;;
45762;SDS011;37512;52.408;13.356;2023-04-25T12:58:19;4.38;;;1.45;;
45762;SDS011;37512;52.408;13.356;2023-04-25T13:02:21;6.63;;;1.83;;
45762;SDS011;37512;52.408;13.356;2023-04-25T13:06:23;6.18;;;2.28;;
45762;SDS011;37512;52.408;13.356;2023-04-25T13:10:25;9.18;;;2.28;;
45762;SDS011;37512;52.408;13.356;2023-04-25T13:14:26;3.80;;;1.33;;
45762;SDS011;37512;52.408;13.356;2023-04-25T13:18:28;3.42;;;1.88;;
45762;SDS011;37512;52.408;13.356;2023-04-25T13:22:31;5.20;;;1.38;;
45762;SDS011;37512;52.408;13.356;2023-04-25T13:26:32;14.30;;;2.28;;
45762;SDS011;37512;52.408;13.356;2023-04-25T13:30:34;4.28;;;1.70;;
45762;SDS011;37512;52.408;13.356;2023-04-25T13:34:36;6.30;;;1.70;;
45762;SDS011;37512;52.408;13.356;2023-04-25T13:38:37;7.75;;;2.05;;
45762;SDS011;37512;52.408;13.356;2023-04-25T13:42:40;8.43;;;2.22;;
45762;SDS011;37512;52.408;13.356;2023-04-25T13:46:41;4.43;;;1.95;;
45762;SDS011;37512;52.408;13.356;2023-04-25T13:50:47;3.83;;;1.38;;
45762;SDS011;37512;52.408;13.356;2023-04-25T13:54:49;4.03;;;1.70;;
45762;SDS011;37512;52.408;13.356;2023-04-25T13:58:51;3.90;;;1.42;;
45762;SDS011;37512;52.408;13.356;2023-04-25T14:02:53;3.10;;;1.30;;
45762;SDS011;37512;52.408;13.356;2023-04-25T14:06:55;2.60;;;1.17;;
45762;SDS011;37512;52.408;13.356;2023-04-25T14:10:57;3.08;;;1.40;;
45762;SDS011;37512;52.408;13.356;2023-04-25T14:14:58;3.00;;;1.38;;
45762;SDS011;37512;52.408;13.356;2023-04-25T14:19:02;9.38;;;2.10;;
45762;SDS011;37512;52.408;13.356;2023-04-25T14:23:06;5.53;;;1.50;;
45762;SDS011;37512;52.408;13.356;2023-04-25T14:27:08;5.28;;;1.90;;
45762;SDS011;37512;52.408;13.356;2023-04-25T14:31:09;5.65;;;1.60;;
45762;SDS011;37512;52.408;13.356;2023-04-25T14:35:13;4.82;;;1.35;;
45762;SDS011;37512;52.408;13.356;2023-04-25T14:39:14;5.72;;;1.73;;
45762;SDS011;37512;52.408;13.356;2023-04-25T14:43:16;7.63;;;2.47;;
45762;SDS011;37512;52.408;13.356;2023-04-25T14:47:17;4.05;;;1.73;;
45762;SDS011;37512;52.408;13.356;2023-04-25T14:51:19;6.78;;;2.20;;
45762;SDS011;37512;52.408;13.356;2023-04-25T14:55:20;4.28;;;2.15;;
45762;SDS011;37512;52.408;13.356;2023-04-25T14:59:22;2.85;;;1.52;;
45762;SDS011;37512;52.408;13.356;2023-04-25T15:03:23;4.63;;;1.77;;
45762;SDS011;37512;52.408;13.356;2023-04-25T15:07:25;1.25;;;0.90;;
45762;SDS011;37512;52.408;13.356;2023-04-25T15:11:27;4.05;;;1.85;;
45762;SDS011;37512;52.408;13.356;2023-04-25T15:15:29;4.05;;;1.35;;
45762;SDS011;37512;52.408;13.356;2023-04-25T15:19:30;8.43;;;2.10;;
45762;SDS011;37512;52.408;13.356;2023-04-25T15:23:32;9.23;;;2.13;;
45762;SDS011;37512;52.408;13.356;2023-04-25T15:27:34;6.18;;;2.30;;
45762;SDS011;37512;52.408;13.356;2023-04-25T15:31:38;6.00;;;1.40;;
45762;SDS011;37512;52.408;13.356;2023-04-25T15:35:40;2.05;;;1.30;;
45762;SDS011;37512;52.408;13.356;2023-04-25T15:39:43;2.97;;;1.17;;
45762;SDS011;37512;52.408;13.356;2023-04-25T15:43:46;2.03;;;1.00;;
45762;SDS011;37512;52.408;13.356;2023-04-25T15:47:50;4.50;;;1.33;;
45762;SDS011;37512;52.408;13.356;2023-04-25T15:51:53;2.95;;;1.30;;
45762;SDS011;37512;52.408;13.356;2023-04-25T15:55:55;2.38;;;1.10;;
45762;SDS011;37512;52.408;13.356;2023-04-25T15:59:57;4.50;;;1.38;;
45762;SDS011;37512;52.408;13.356;2023-04-25T16:03:59;1.83;;;1.25;;
45762;SDS011;37512;52.408;13.356;2023-04-25T16:08:01;6.30;;;1.65;;
45762;SDS011;37512;52.408;13.356;2023-04-25T16:12:04;2.85;;;1.10;;
45762;SDS011;37512;52.408;13.356;2023-04-25T16:16:07;4.47;;;1.42;;
45762;SDS011;37512;52.408;13.356;2023-04-25T16:20:09;3.83;;;1.05;;
45762;SDS011;37512;52.408;13.356;2023-04-25T16:24:12;5.13;;;0.98;;
45762;SDS011;37512;52.408;13.356;2023-04-25T16:28:14;3.30;;;1.17;;
45762;SDS011;37512;52.408;13.356;2023-04-25T16:32:16;3.65;;;1.30;;
45762;SDS011;37512;52.408;13.356;2023-04-25T16:36:18;9.80;;;1.45;;
45762;SDS011;37512;52.408;13.356;2023-04-25T16:40:20;9.32;;;1.40;;
45762;SDS011;37512;52.408;13.356;2023-04-25T16:44:21;3.22;;;1.15;;
45762;SDS011;37512;52.408;13.356;2023-04-25T16:48:23;4.88;;;1.27;;
45762;SDS011;37512;52.408;13.356;2023-04-25T16:52:24;7.45;;;1.23;;
45762;SDS011;37512;52.408;13.356;2023-04-25T16:56:26;3.75;;;1.38;;
45762;SDS011;37512;52.408;13.356;2023-04-25T17:00:28;1.65;;;0.98;;
45762;SDS011;37512;52.408;13.356;2023-04-25T17:04:29;4.05;;;1.35;;
45762;SDS011;37512;52.408;13.356;2023-04-25T17:08:31;5.30;;;1.38;;
45762;SDS011;37512;52.408;13.356;2023-04-25T17:12:32;3.80;;;1.38;;
45762;SDS011;37512;52.408;13.356;2023-04-25T17:16:34;6.45;;;1.05;;
45762;SDS011;37512;52.408;13.356;2023-04-25T17:20:37;1.10;;;0.70;;
45762;SDS011;37512;52.408;13.356;2023-04-25T17:24:38;1.48;;;0.55;;
45762;SDS011;37512;52.408;13.356;2023-04-25T17:28:40;5.72;;;1.33;;
45762;SDS011;37512;52.408;13.356;2023-04-25T17:32:45;2.28;;;1.13;;
45762;SDS011;37512;52.408;13.356;2023-04-25T17:36:46;3.83;;;1.20;;
45762;SDS011;37512;52.408;13.356;2023-04-25T17:40:48;4.43;;;1.40;;
45762;SDS011;37512;52.408;13.356;2023-04-25T17:44:50;4.85;;;1.40;;
45762;SDS011;37512;52.408;13.356;2023-04-25T17:48:51;4.25;;;1.48;;
45762;SDS011;37512;52.408;13.356;2023-04-25T17:52:53;6.85;;;2.50;;
45762;SDS011;37512;52.408;13.356;2023-04-25T17:56:55;2.22;;;1.48;;
45762;SDS011;37512;52.408;13.356;2023-04-25T18:00:56;5.40;;;1.48;;
45762;SDS011;37512;52.408;13.356;2023-04-25T18:04:58;4.35;;;1.15;;
45762;SDS011;37512;52.408;13.356;2023-04-25T18:09:00;3.25;;;1.02;;
45762;SDS011;37512;52.408;13.356;2023-04-25T18:13:02;1.52;;;0.70;;
45762;SDS011;37512;52.408;13.356;2023-04-25T18:17:04;5.68;;;1.30;;
45762;SDS011;37512;52.408;13.356;2023-04-25T18:21:07;2.88;;;0.98;;
45762;SDS011;37512;52.408;13.356;2023-04-25T18:25:09;3.35;;;1.48;;
45762;SDS011;37512;52.408;13.356;2023-04-25T18:29:12;1.58;;;0.95;;
45762;SDS011;37512;52.408;13.356;2023-04-25T18:33:32;7.18;;;1.52;;
45762;SDS011;37512;52.408;13.356;2023-04-25T18:37:34;1.75;;;1.10;;
45762;SDS011;37512;52.408;13.356;2023-04-25T18:41:36;4.13;;;1.20;;
45762;SDS011;37512;52.408;13.356;2023-04-25T18:45:55;3.67;;;2.03;;
45762;SDS011;37512;52.408;13.356;2023-04-25T18:49:56;5.53;;;1.35;;
45762;SDS011;37512;52.408;13.356;2023-04-25T18:53:58;5.88;;;1.58;;
45762;SDS011;37512;52.408;13.356;2023-04-25T18:57:59;8.70;;;1.88;;
45762;SDS011;37512;52.408;13.356;2023-04-25T19:02:01;2.85;;;1.50;;
45762;SDS011;37512;52.408;13.356;2023-04-25T19:06:04;3.08;;;1.40;;
45762;SDS011;37512;52.408;13.356;2023-04-25T19:10:06;3.78;;;1.42;;
45762;SDS011;37512;52.408;13.356;2023-04-25T19:14:08;3.17;;;1.63;;
45762;SDS011;37512;52.408;13.356;2023-04-25T19:18:10;3.20;;;1.52;;
45762;SDS011;37512;52.408;13.356;2023-04-25T19:22:12;4.40;;;1.52;;
45762;SDS011;37512;52.408;13.356;2023-04-25T19:26:14;1.15;;;0.90;;
45762;SDS011;37512;52.408;13.356;2023-04-25T19:30:16;6.97;;;1.40;;
45762;SDS011;37512;52.408;13.356;2023-04-25T19:34:17;2.95;;;1.50;;
45762;SDS011;37512;52.408;13.356;2023-04-25T19:38:19;6.68;;;2.40;;
45762;SDS011;37512;52.408;13.356;2023-04-25T19:42:20;4.85;;;1.50;;
45762;SDS011;37512;52.408;13.356;2023-04-25T19:46:23;8.10;;;2.70;;
45762;SDS011;37512;52.408;13.356;2023-04-25T19:50:25;5.85;;;1.48;;
45762;SDS011;37512;52.408;13.356;2023-04-25T19:54:27;3.15;;;1.92;;
45762;SDS011;37512;52.408;13.356;2023-04-25T19:58:28;3.63;;;1.48;;
45762;SDS011;37512;52.408;13.356;2023-04-25T20:02:30;3.55;;;1.77;;
45762;SDS011;37512;52.408;13.356;2023-04-25T20:06:31;4.53;;;1.55;;
45762;SDS011;37512;52.408;13.356;2023-04-25T20:10:33;5.95;;;1.77;;
45762;SDS011;37512;52.408;13.356;2023-04-25T20:14:35;5.65;;;1.75;;
45762;SDS011;37512;52.408;13.356;2023-04-25T20:18:36;3.97;;;1.52;;
45762;SDS011;37512;52.408;13.356;2023-04-25T20:22:39;3.38;;;1.20;;
45762;SDS011;37512;52.408;13.356;2023-04-25T20:26:41;4.47;;;1.55;;
45762;SDS011;37512;52.408;13.356;2023-04-25T20:30:43;6.63;;;1.98;;
45762;SDS011;37512;52.408;13.356;2023-04-25T20:34:44;1.20;;;0.95;;
45762;SDS011;37512;52.408;13.356;2023-04-25T20:38:46;7.78;;;2.70;;
45762;SDS011;37512;52.408;13.356;2023-04-25T20:42:48;4.30;;;1.60;;
45762;SDS011;37512;52.408;13.356;2023-04-25T20:46:49;3.45;;;2.00;;
45762;SDS011;37512;52.408;13.356;2023-04-25T20:50:51;6.03;;;2.03;;
45762;SDS011;37512;52.408;13.356;2023-04-25T20:54:53;6.55;;;2.65;;
45762;SDS011;37512;52.408;13.356;2023-04-25T20:58:54;4.75;;;1.85;;
45762;SDS011;37512;52.408;13.356;2023-04-25T21:02:58;7.05;;;2.95;;
45762;SDS011;37512;52.408;13.356;2023-04-25T21:07:00;3.35;;;1.58;;
45762;SDS011;37512;52.408;13.356;2023-04-25T21:11:01;3.83;;;1.90;;
45762;SDS011;37512;52.408;13.356;2023-04-25T21:15:03;5.20;;;1.65;;
45762;SDS011;37512;52.408;13.356;2023-04-25T21:19:05;3.15;;;1.10;;
45762;SDS011;37512;52.408;13.356;2023-04-25T21:23:06;6.72;;;1.67;;
45762;SDS011;37512;52.408;13.356;2023-04-25T21:27:08;3.22;;;1.27;;
45762;SDS011;37512;52.408;13.356;2023-04-25T21:31:09;4.78;;;1.55;;
45762;SDS011;37512;52.408;13.356;2023-04-25T21:35:12;1.02;;;0.93;;
45762;SDS011;37512;52.408;13.356;2023-04-25T21:39:14;3.13;;;1.40;;
45762;SDS011;37512;52.408;13.356;2023-04-25T21:43:16;6.38;;;1.80;;
45762;SDS011;37512;52.408;13.356;2023-04-25T21:47:18;10.23;;;2.28;;
45762;SDS011;37512;52.408;13.356;2023-04-25T21:51:19;3.45;;;1.35;;
45762;SDS011;37512;52.408;13.356;2023-04-25T21:55:21;2.63;;;1.30;;
45762;SDS011;37512;52.408;13.356;2023-04-25T21:59:23;4.43;;;1.90;;
45762;SDS011;37512;52.408;13.356;2023-04-25T22:03:25;2.65;;;1.10;;
45762;SDS011;37512;52.408;13.356;2023-04-25T22:07:26;3.60;;;1.73;;
45762;SDS011;37512;52.408;13.356;2023-04-25T22:11:28;3.80;;;1.02;;
45762;SDS011;37512;52.408;13.356;2023-04-25T22:15:29;3.80;;;1.58;;
45762;SDS011;37512;52.408;13.356;2023-04-25T22:19:31;7.45;;;1.25;;
45762;SDS011;37512;52.408;13.356;2023-04-25T22:23:32;3.53;;;1.33;;
45762;SDS011;37512;52.408;13.356;2023-04-25T22:27:35;0.82;;;0.73;;
45762;SDS011;37512;52.408;13.356;2023-04-25T22:31:36;2.60;;;1.00;;
45762;SDS011;37512;52.408;13.356;2023-04-25T22:35:38;3.85;;;2.05;;
45762;SDS011;37512;52.408;13.356;2023-04-25T22:39:39;2.10;;;1.23;;
45762;SDS011;37512;52.408;13.356;2023-04-25T22:43:40;9.73;;;1.80;;
45762;SDS011;37512;52.408;13.356;2023-04-25T22:47:42;2.70;;;1.40;;
45762;SDS011;37512;52.408;13.356;2023-04-25T22:51:44;5.25;;;2.03;;
45762;SDS011;37512;52.408;13.356;2023-04-25T22:55:53;1.75;;;1.05;;
45762;SDS011;37512;52.408;13.356;2023-04-25T22:59:57;5.35;;;1.20;;
45762;SDS011;37512;52.408;13.356;2023-04-25T23:03:58;4.10;;;1.60;;
45762;SDS011;37512;52.408;13.356;2023-04-25T23:08:00;2.70;;;1.55;;
45762;SDS011;37512;52.408;13.356;2023-04-25T23:12:02;6.07;;;1.90;;
45762;SDS011;37512;52.408;13.356;2023-04-25T23:16:08;3.45;;;1.40;;
45762;SDS011;37512;52.408;13.356;2023-04-25T23:20:11;3.47;;;1.42;;
45762;SDS011;37512;52.408;13.356;2023-04-25T23:24:13;6.10;;;2.17;;
45762;SDS011;37512;52.408;13.356;2023-04-25T23:28:14;6.00;;;2.22;;
45762;SDS011;37512;52.408;13.356;2023-04-25T23:32:16;3.08;;;1.25;;
45762;SDS011;37512;52.408;13.356;2023-04-25T23:36:18;3.92;;;1.30;;
45762;SDS011;37512;52.408;13.356;2023-04-25T23:40:21;4.28;;;1.15;;
45762;SDS011;37512;52.408;13.356;2023-04-25T23:44:23;5.72;;;1.27;;
45762;SDS011;37512;52.408;13.356;2023-04-25T23:48:24;4.10;;;1.52;;
45762;SDS011;37512;52.408;13.356;2023-04-25T23:52:26;4.90;;;1.08;;
45762;SDS011;37512;52.408;13.356;2023-04-25T23:56:28;8.65;;;1.17;;
